Time;durP1;ratioP1;P1;durP2;ratioP2;P2;SDS_P1;SDS_P2;PMS_P1;PMS_P2;Temp;Humidity;BMP_temperature;BMP_pressure;BME280_temperature;BME280_humidity;BME280_pressure;Samples;Min_cycle;Max_cycle;Signal;HPM_P1;HPM_P2
2022/02/27 00:00:16;;;;;;;17.10;8.10;;;5.80;93.40;;;;;;5074129;28;20600;-69
2022/02/27 00:02:43;;;;;;;15.70;8.20;;;5.80;93.40;;;;;;5074948;28;20445;-68
2022/02/27 00:05:11;;;;;;;16.30;8.57;;;5.80;93.30;;;;;;5074020;28;20451;-68
2022/02/27 00:07:37;;;;;;;11.43;7.10;;;5.80;93.30;;;;;;5073679;28;20464;-68
2022/02/27 00:10:05;;;;;;;11.60;8.33;;;5.70;93.20;;;;;;5073917;28;20833;-68
2022/02/27 00:12:34;;;;;;;13.30;7.90;;;5.70;93.30;;;;;;5073718;28;20856;-68
2022/02/27 00:15:00;;;;;;;14.57;9.07;;;5.70;93.30;;;;;;5073912;28;20455;-68
2022/02/27 00:17:27;;;;;;;12.53;7.43;;;5.60;93.50;;;;;;5073640;28;20936;-68
2022/02/27 00:19:54;;;;;;;18.23;9.07;;;5.60;93.60;;;;;;5073798;28;20468;-68
2022/02/27 00:22:21;;;;;;;16.67;8.67;;;5.60;93.60;;;;;;5073929;28;20451;-68
2022/02/27 00:24:48;;;;;;;14.27;9.63;;;5.60;93.50;;;;;;5073747;28;20437;-68
2022/02/27 00:27:14;;;;;;;16.97;8.53;;;5.60;93.70;;;;;;5073905;28;20448;-68
2022/02/27 00:29:42;;;;;;;15.13;7.63;;;5.60;93.20;;;;;;5074234;28;20484;-68
2022/02/27 00:32:09;;;;;;;11.27;7.50;;;5.60;93.30;;;;;;5075453;28;20445;-68
2022/02/27 00:34:36;;;;;;;13.60;7.60;;;5.50;93.30;;;;;;5074590;28;20458;-68
2022/02/27 00:37:03;;;;;;;19.83;8.67;;;5.50;93.30;;;;;;5074469;28;20939;-68
2022/02/27 00:39:30;;;;;;;9.90;7.03;;;5.50;93.30;;;;;;5073842;28;20457;-68
2022/02/27 00:41:57;;;;;;;16.93;9.13;;;5.50;93.30;;;;;;5074009;28;20464;-68
2022/02/27 00:44:23;;;;;;;22.23;9.50;;;5.50;93.30;;;;;;5073861;28;20452;-68
2022/02/27 00:46:51;;;;;;;14.83;8.50;;;5.40;93.30;;;;;;5073654;28;20851;-68
2022/02/27 00:49:18;;;;;;;13.57;7.93;;;5.40;93.40;;;;;;5073489;28;20491;-68
2022/02/27 00:51:45;;;;;;;11.67;7.60;;;5.40;93.50;;;;;;5073732;28;20786;-68
2022/02/27 00:54:12;;;;;;;15.27;8.13;;;5.40;93.50;;;;;;5073588;28;20441;-68
2022/02/27 00:56:39;;;;;;;10.90;7.60;;;5.40;93.40;;;;;;5073546;28;20444;-68
2022/02/27 00:59:05;;;;;;;15.23;7.43;;;5.40;93.40;;;;;;5073680;28;20436;-68
2022/02/27 01:01:32;;;;;;;18.57;7.30;;;5.30;93.30;;;;;;5073660;28;20448;-68
2022/02/27 01:04:00;;;;;;;16.03;7.40;;;5.30;93.50;;;;;;5073178;28;20940;-68
2022/02/27 01:06:27;;;;;;;14.80;7.70;;;5.30;93.50;;;;;;5073338;28;20445;-68
2022/02/27 01:08:55;;;;;;;14.17;7.60;;;5.20;93.50;;;;;;5073593;28;20484;-68
2022/02/27 01:11:22;;;;;;;12.27;7.47;;;5.20;93.60;;;;;;5073502;28;20460;-68
2022/02/27 01:13:48;;;;;;;14.70;7.10;;;5.20;93.50;;;;;;5073429;28;20452;-68
2022/02/27 01:16:15;;;;;;;15.97;7.83;;;5.20;93.40;;;;;;5073302;28;20459;-68
2022/02/27 01:18:42;;;;;;;14.87;7.80;;;5.10;93.40;;;;;;5073359;28;20448;-68
2022/02/27 01:21:10;;;;;;;11.57;7.10;;;5.10;93.40;;;;;;5073357;28;20466;-68
2022/02/27 01:23:37;;;;;;;8.73;5.93;;;5.10;93.50;;;;;;5073398;28;20452;-68
2022/02/27 01:26:04;;;;;;;14.50;6.73;;;5.10;93.60;;;;;;5073448;28;20464;-68
2022/02/27 01:28:31;;;;;;;13.20;7.27;;;5.10;93.60;;;;;;5073671;28;20480;-68
2022/02/27 01:30:58;;;;;;;16.17;7.60;;;5.00;93.70;;;;;;5074150;28;20476;-68
2022/02/27 01:33:25;;;;;;;18.23;7.20;;;5.00;93.90;;;;;;5073454;28;20936;-68
2022/02/27 01:35:52;;;;;;;15.13;7.90;;;5.00;94.20;;;;;;5073619;28;20444;-68
2022/02/27 01:38:20;;;;;;;15.60;7.77;;;5.00;94.40;;;;;;5073169;28;20955;-68
2022/02/27 01:40:47;;;;;;;12.00;7.10;;;5.00;94.40;;;;;;5073172;28;20468;-68
2022/02/27 01:43:14;;;;;;;12.70;7.17;;;5.00;94.50;;;;;;5073290;28;20444;-68
2022/02/27 01:45:41;;;;;;;13.47;7.50;;;5.00;94.60;;;;;;5073166;28;20484;-68
2022/02/27 01:48:08;;;;;;;13.47;8.00;;;5.00;94.60;;;;;;5072957;28;20433;-68
2022/02/27 01:50:35;;;;;;;15.47;7.83;;;5.00;94.40;;;;;;5072871;28;20468;-68
2022/02/27 01:53:02;;;;;;;12.37;6.37;;;4.90;94.40;;;;;;5075739;28;20452;-68
2022/02/27 01:55:30;;;;;;;13.27;7.53;;;4.90;94.40;;;;;;5076565;28;20443;-68
2022/02/27 01:57:56;;;;;;;12.43;7.67;;;4.90;94.50;;;;;;5076673;28;20451;-68
2022/02/27 02:00:23;;;;;;;19.83;7.20;;;4.90;94.50;;;;;;5076546;28;20460;-68
2022/02/27 02:02:50;;;;;;;9.60;6.77;;;4.90;94.40;;;;;;5076538;28;20436;-68
2022/02/27 02:05:17;;;;;;;14.57;7.27;;;4.90;94.40;;;;;;5076143;28;20441;-68
2022/02/27 02:07:44;;;;;;;16.67;7.80;;;4.90;94.30;;;;;;5076083;28;20444;-68
2022/02/27 02:10:11;;;;;;;13.63;7.10;;;4.80;94.20;;;;;;5076224;28;20492;-68
2022/02/27 02:12:39;;;;;;;12.83;7.43;;;4.80;94.30;;;;;;5076293;28;20445;-68
2022/02/27 02:15:07;;;;;;;9.80;6.60;;;4.80;94.30;;;;;;5075988;28;20908;-68
2022/02/27 02:17:36;;;;;;;10.90;6.43;;;4.80;94.40;;;;;;5076148;28;20441;-68
2022/02/27 02:20:06;;;;;;;10.40;6.83;;;4.70;94.50;;;;;;5076059;28;20469;-68
2022/02/27 02:22:32;;;;;;;8.97;6.87;;;4.70;94.90;;;;;;5075714;28;20502;-68
2022/02/27 02:24:59;;;;;;;9.07;7.00;;;4.70;94.90;;;;;;5075744;28;20970;-68
2022/02/27 02:27:26;;;;;;;10.20;6.57;;;4.70;94.90;;;;;;5075943;28;20448;-68
2022/02/27 02:29:53;;;;;;;13.20;6.43;;;4.70;94.90;;;;;;5075728;28;20851;-68
2022/02/27 02:32:20;;;;;;;14.10;6.43;;;4.60;94.70;;;;;;5075721;28;20444;-68
2022/02/27 02:34:47;;;;;;;8.57;5.60;;;4.60;94.80;;;;;;5075701;28;20494;-68
2022/02/27 02:37:15;;;;;;;11.17;5.80;;;4.60;94.80;;;;;;5075733;28;20448;-68
2022/02/27 02:39:42;;;;;;;10.10;5.50;;;4.60;94.90;;;;;;5075479;28;20461;-68
2022/02/27 02:42:08;;;;;;;12.93;6.10;;;4.60;94.90;;;;;;5075685;28;20456;-68
2022/02/27 02:44:35;;;;;;;13.67;7.50;;;4.60;95.00;;;;;;5075326;28;20476;-68
2022/02/27 02:47:02;;;;;;;9.83;5.43;;;4.60;95.10;;;;;;5075207;28;20964;-68
2022/02/27 02:49:29;;;;;;;8.50;5.73;;;4.60;95.10;;;;;;5075029;28;21022;-68
2022/02/27 02:51:56;;;;;;;8.80;5.70;;;4.60;95.00;;;;;;5076172;28;20448;-68
2022/02/27 02:54:24;;;;;;;9.40;6.47;;;4.60;95.00;;;;;;5075376;28;20441;-68
2022/02/27 02:56:51;;;;;;;14.80;6.00;;;4.60;95.10;;;;;;5075148;28;20943;-68
2022/02/27 02:59:19;;;;;;;10.33;6.13;;;4.50;95.20;;;;;;5075110;28;20452;-68
2022/02/27 03:01:46;;;;;;;10.13;4.93;;;4.50;95.20;;;;;;5075246;28;20452;-68
2022/02/27 03:04:13;;;;;;;8.40;6.07;;;4.50;95.10;;;;;;5074998;28;20449;-68
2022/02/27 03:06:40;;;;;;;17.20;5.70;;;4.50;95.30;;;;;;5074961;28;20823;-68
2022/02/27 03:09:07;;;;;;;10.13;5.90;;;4.50;95.30;;;;;;5074932;28;20472;-68
2022/02/27 03:11:35;;;;;;;13.33;6.10;;;4.50;95.30;;;;;;5074959;28;20448;-68
2022/02/27 03:14:02;;;;;;;9.90;5.43;;;4.50;95.20;;;;;;5074897;28;20452;-68
2022/02/27 03:16:29;;;;;;;8.33;5.40;;;4.50;95.10;;;;;;5074882;28;20489;-68
2022/02/27 03:18:56;;;;;;;12.03;5.87;;;4.40;95.10;;;;;;5074834;28;20440;-68
2022/02/27 03:21:23;;;;;;;10.33;5.27;;;4.40;95.20;;;;;;5074575;28;20476;-68
2022/02/27 03:23:52;;;;;;;13.60;5.30;;;4.40;95.20;;;;;;5074815;28;20433;-68
2022/02/27 03:26:20;;;;;;;8.90;5.97;;;4.40;95.30;;;;;;5074570;28;20544;-68
2022/02/27 03:28:48;;;;;;;11.80;5.70;;;4.40;95.20;;;;;;5074329;28;20936;-68
2022/02/27 03:31:15;;;;;;;9.93;6.03;;;4.40;95.20;;;;;;5074154;28;20449;-68
2022/02/27 03:33:42;;;;;;;10.67;5.50;;;4.40;95.10;;;;;;5074556;28;20448;-68
2022/02/27 03:36:09;;;;;;;11.20;5.13;;;4.40;95.20;;;;;;5074490;28;20437;-69
2022/02/27 03:38:35;;;;;;;10.67;6.00;;;4.40;95.20;;;;;;5074387;28;20448;-68
2022/02/27 03:41:02;;;;;;;14.27;5.93;;;4.40;95.10;;;;;;5074004;28;20471;-68
2022/02/27 03:43:29;;;;;;;15.53;4.57;;;4.40;95.10;;;;;;5074357;28;20452;-68
2022/02/27 03:45:57;;;;;;;9.50;6.23;;;4.30;95.00;;;;;;5074255;28;20452;-68
2022/02/27 03:48:24;;;;;;;7.30;5.30;;;4.30;95.00;;;;;;5074393;28;20445;-68
2022/02/27 03:50:50;;;;;;;13.07;5.93;;;4.30;94.90;;;;;;5073953;28;20995;-68
2022/02/27 03:53:18;;;;;;;13.20;6.10;;;4.20;94.80;;;;;;5074151;28;20449;-68
2022/02/27 03:55:45;;;;;;;10.30;5.83;;;4.20;94.80;;;;;;5074384;28;20556;-67
2022/02/27 03:58:12;;;;;;;10.50;5.60;;;4.20;94.90;;;;;;5074094;28;20449;-68
2022/02/27 04:00:38;;;;;;;9.93;5.67;;;4.20;94.90;;;;;;5074044;28;20456;-68
2022/02/27 04:03:08;;;;;;;11.50;5.60;;;4.10;94.90;;;;;;5074086;28;20445;-68
2022/02/27 04:05:36;;;;;;;10.60;5.73;;;4.10;94.90;;;;;;5074000;28;20461;-68
2022/02/27 04:08:03;;;;;;;7.30;4.73;;;4.00;94.80;;;;;;5073449;28;20557;-68
2022/02/27 04:10:30;;;;;;;7.53;4.63;;;4.00;94.80;;;;;;5073754;28;20480;-68
2022/02/27 04:12:57;;;;;;;10.03;5.80;;;4.00;94.90;;;;;;5073764;28;20459;-68
2022/02/27 04:15:24;;;;;;;10.83;6.13;;;4.00;95.00;;;;;;5073037;28;20441;-68
2022/02/27 04:17:51;;;;;;;11.23;6.33;;;4.00;95.00;;;;;;5073650;28;20425;-68
2022/02/27 04:20:19;;;;;;;10.23;5.70;;;4.00;94.90;;;;;;5073375;28;20991;-68
2022/02/27 04:22:46;;;;;;;12.07;6.53;;;3.90;94.80;;;;;;5073786;28;20448;-68
2022/02/27 04:25:13;;;;;;;9.87;5.87;;;3.90;94.90;;;;;;5073766;28;20449;-68
2022/02/27 04:27:39;;;;;;;12.93;6.70;;;3.90;94.80;;;;;;5073718;28;20444;-68
2022/02/27 04:30:07;;;;;;;9.30;5.17;;;3.80;94.90;;;;;;5073601;28;20484;-68
2022/02/27 04:32:33;;;;;;;8.53;5.57;;;3.80;94.80;;;;;;5073944;28;20449;-67
2022/02/27 04:35:00;;;;;;;7.63;5.57;;;3.80;94.90;;;;;;5073719;28;20440;-68
2022/02/27 04:37:28;;;;;;;9.20;5.00;;;3.80;94.90;;;;;;5073304;28;20452;-68
2022/02/27 04:39:55;;;;;;;9.37;6.23;;;3.70;95.00;;;;;;5073365;28;20464;-68
2022/02/27 04:42:22;;;;;;;8.47;5.30;;;3.70;95.10;;;;;;5073411;28;20448;-68
2022/02/27 04:44:48;;;;;;;7.80;5.13;;;3.70;95.20;;;;;;5073570;28;20452;-68
2022/02/27 04:47:15;;;;;;;11.60;5.00;;;3.70;95.10;;;;;;5073578;28;20475;-68
2022/02/27 04:49:42;;;;;;;8.53;5.90;;;3.60;95.20;;;;;;5073557;28;20491;-68
2022/02/27 04:52:09;;;;;;;9.10;5.37;;;3.60;95.20;;;;;;5073492;28;20440;-68
2022/02/27 04:54:37;;;;;;;9.10;5.87;;;3.60;95.30;;;;;;5074613;28;20455;-68
2022/02/27 04:57:04;;;;;;;7.60;5.13;;;3.60;95.20;;;;;;5074171;28;21006;-68
2022/02/27 04:59:31;;;;;;;9.33;5.40;;;3.60;95.20;;;;;;5074755;28;20467;-68
2022/02/27 05:01:57;;;;;;;11.37;5.90;;;3.60;95.10;;;;;;5074822;28;20534;-68
2022/02/27 05:04:24;;;;;;;11.70;5.50;;;3.60;95.10;;;;;;5075535;28;20441;-68
2022/02/27 05:06:51;;;;;;;11.33;5.67;;;3.60;95.00;;;;;;5075060;28;20459;-68
2022/02/27 05:09:19;;;;;;;10.73;5.27;;;3.60;95.00;;;;;;5076034;28;20429;-67
2022/02/27 05:11:48;;;;;;;10.40;5.70;;;3.60;95.00;;;;;;5074547;28;20457;-68
2022/02/27 05:14:15;;;;;;;10.20;5.57;;;3.50;94.90;;;;;;5074074;28;20441;-68
2022/02/27 05:16:42;;;;;;;11.90;5.60;;;3.60;94.90;;;;;;5073583;28;20452;-68
2022/02/27 05:19:09;;;;;;;17.17;5.10;;;3.50;95.00;;;;;;5073667;28;20924;-67
2022/02/27 05:21:36;;;;;;;11.57;5.63;;;3.50;95.00;;;;;;5073031;28;20994;-68
2022/02/27 05:24:03;;;;;;;7.97;5.20;;;3.50;95.20;;;;;;5073666;28;20433;-68
2022/02/27 05:26:30;;;;;;;15.73;5.47;;;3.50;95.30;;;;;;5073935;28;20834;-68
2022/02/27 05:28:58;;;;;;;14.53;5.30;;;3.40;95.60;;;;;;5077410;28;20441;-68
2022/02/27 05:31:25;;;;;;;11.73;5.23;;;3.40;95.30;;;;;;5078091;28;20492;-68
2022/02/27 05:33:52;;;;;;;10.03;5.37;;;3.40;95.30;;;;;;5077296;28;20452;-68
2022/02/27 05:36:19;;;;;;;8.10;4.80;;;3.40;95.30;;;;;;5077099;28;20459;-68
2022/02/27 05:38:46;;;;;;;10.13;5.30;;;3.40;95.50;;;;;;5076766;28;20453;-68
2022/02/27 05:41:13;;;;;;;10.83;4.80;;;3.40;95.50;;;;;;5076772;28;20465;-68
2022/02/27 05:43:40;;;;;;;10.53;5.37;;;3.40;95.60;;;;;;5076572;28;20449;-68
2022/02/27 05:46:08;;;;;;;10.33;4.80;;;3.40;95.70;;;;;;5076613;28;20448;-68
2022/02/27 05:48:35;;;;;;;9.03;4.67;;;3.40;95.70;;;;;;5076609;28;20445;-68
2022/02/27 05:51:02;;;;;;;9.50;5.23;;;3.40;95.70;;;;;;5076150;28;20984;-68
2022/02/27 05:53:28;;;;;;;7.13;4.30;;;3.40;95.70;;;;;;5076581;28;20448;-68
2022/02/27 05:55:57;;;;;;;9.30;4.73;;;3.40;95.80;;;;;;5076505;28;20505;-68
2022/02/27 05:58:25;;;;;;;11.50;4.60;;;3.40;95.90;;;;;;5076428;28;20859;-68
2022/02/27 06:00:52;;;;;;;7.73;4.00;;;3.40;96.00;;;;;;5075953;28;21024;-68
2022/02/27 06:03:20;;;;;;;11.80;5.20;;;3.30;96.00;;;;;;5076390;28;20452;-68
2022/02/27 06:05:47;;;;;;;7.90;4.43;;;3.40;96.00;;;;;;5076805;28;20444;-68
2022/02/27 06:08:14;;;;;;;8.43;4.80;;;3.30;96.10;;;;;;5075834;28;20456;-68
2022/02/27 06:10:41;;;;;;;11.00;6.30;;;3.40;96.10;;;;;;5075997;28;20488;-68
2022/02/27 06:13:08;;;;;;;15.87;7.10;;;3.40;96.10;;;;;;5076236;28;20449;-68
2022/02/27 06:15:35;;;;;;;11.43;6.20;;;3.40;96.10;;;;;;5076044;28;20453;-68
2022/02/27 06:18:01;;;;;;;9.30;6.13;;;3.30;96.20;;;;;;5076000;28;20455;-68
2022/02/27 06:20:30;;;;;;;10.90;6.50;;;3.30;96.30;;;;;;5075860;28;20467;-68
2022/02/27 06:22:56;;;;;;;12.10;5.63;;;3.30;96.40;;;;;;5075916;28;20452;-68
2022/02/27 06:25:23;;;;;;;10.27;6.30;;;3.30;96.60;;;;;;5075663;28;20461;-68
2022/02/27 06:27:50;;;;;;;10.13;5.03;;;3.30;96.80;;;;;;5075672;28;20435;-68
2022/02/27 06:30:20;;;;;;;12.20;5.30;;;3.30;97.00;;;;;;5075460;28;20995;-68
2022/02/27 06:32:49;;;;;;;7.00;4.67;;;3.30;97.10;;;;;;5075414;28;20445;-68
2022/02/27 06:35:17;;;;;;;9.27;5.30;;;3.40;97.40;;;;;;5075722;28;20445;-68
2022/02/27 06:37:46;;;;;;;8.73;4.87;;;3.40;97.50;;;;;;5075479;28;20440;-68
2022/02/27 06:40:14;;;;;;;7.40;4.80;;;3.40;97.60;;;;;;5075252;28;20468;-67
2022/02/27 06:42:42;;;;;;;8.50;4.43;;;3.40;97.60;;;;;;5075551;28;20841;-67
2022/02/27 06:45:11;;;;;;;6.60;4.80;;;3.40;97.70;;;;;;5075230;28;20462;-68
2022/02/27 06:47:38;;;;;;;10.40;4.97;;;3.40;97.80;;;;;;5075561;28;20471;-68
2022/02/27 06:50:06;;;;;;;9.97;5.10;;;3.50;98.00;;;;;;5075445;28;20476;-68
2022/02/27 06:52:34;;;;;;;15.00;4.40;;;3.50;98.20;;;;;;5075452;28;20448;-68
2022/02/27 06:55:02;;;;;;;13.23;5.13;;;3.50;98.30;;;;;;5074954;28;20452;-68
2022/02/27 06:57:29;;;;;;;13.73;4.17;;;3.50;98.30;;;;;;5075119;28;20449;-67
2022/02/27 06:59:56;;;;;;;8.90;4.37;;;3.50;98.40;;;;;;5075239;28;20463;-67
2022/02/27 07:02:23;;;;;;;12.43;4.83;;;3.60;98.40;;;;;;5075297;28;20448;-68
2022/02/27 07:04:50;;;;;;;12.70;5.60;;;3.60;98.40;;;;;;5074847;28;20448;-68
2022/02/27 07:07:17;;;;;;;7.60;4.53;;;3.60;98.30;;;;;;5074886;28;20460;-68
2022/02/27 07:09:43;;;;;;;10.30;5.67;;;3.70;98.40;;;;;;5074734;28;20473;-68
2022/02/27 07:12:12;;;;;;;6.90;5.00;;;3.70;98.50;;;;;;5075179;28;20445;-68
2022/02/27 07:14:39;;;;;;;12.07;6.90;;;3.70;98.40;;;;;;5074775;28;20425;-67
2022/02/27 07:17:06;;;;;;;12.90;5.43;;;3.80;98.30;;;;;;5075041;28;20869;-67
2022/02/27 07:19:32;;;;;;;10.57;5.10;;;3.80;98.30;;;;;;5075646;28;20476;-67
2022/02/27 07:21:59;;;;;;;11.33;5.73;;;3.80;98.30;;;;;;5074785;28;20440;-68
2022/02/27 07:24:26;;;;;;;12.37;5.80;;;3.80;98.20;;;;;;5074491;28;20456;-67
2022/02/27 07:26:53;;;;;;;7.87;5.03;;;3.80;98.30;;;;;;5074836;28;21057;-67
2022/02/27 07:29:21;;;;;;;10.57;5.50;;;3.90;98.30;;;;;;5074827;28;20471;-67
2022/02/27 07:31:48;;;;;;;10.93;5.50;;;3.90;98.20;;;;;;5074513;28;20476;-68
2022/02/27 07:34:15;;;;;;;7.77;5.10;;;4.00;98.10;;;;;;5074347;28;20957;-68
2022/02/27 07:36:41;;;;;;;18.27;5.90;;;4.00;98.10;;;;;;5074570;28;20448;-69
2022/02/27 07:39:08;;;;;;;8.43;4.57;;;4.10;98.40;;;;;;5074040;28;20936;-68
2022/02/27 07:41:36;;;;;;;9.23;5.00;;;4.00;98.30;;;;;;5074411;28;20445;-68
2022/02/27 07:44:03;;;;;;;14.93;4.83;;;4.10;98.40;;;;;;5074085;28;20452;-67
2022/02/27 07:46:31;;;;;;;14.20;4.83;;;4.10;98.30;;;;;;5074436;28;20917;-67
2022/02/27 07:48:58;;;;;;;9.70;4.57;;;4.20;98.20;;;;;;5073990;28;20448;-67
2022/02/27 07:51:25;;;;;;;7.70;4.83;;;4.20;98.10;;;;;;5073760;28;20492;-67
2022/02/27 07:53:51;;;;;;;6.50;5.10;;;4.30;98.20;;;;;;5074255;28;20448;-67
2022/02/27 07:56:18;;;;;;;10.03;4.90;;;4.30;97.90;;;;;;5073990;28;20958;-68
2022/02/27 07:58:45;;;;;;;10.00;5.30;;;4.40;97.90;;;;;;5074051;28;20449;-68
2022/02/27 08:01:12;;;;;;;10.40;5.37;;;4.40;97.70;;;;;;5074008;28;20464;-67
2022/02/27 08:03:40;;;;;;;12.13;4.90;;;4.40;97.70;;;;;;5073626;28;20906;-67
2022/02/27 08:06:07;;;;;;;10.23;5.00;;;4.40;97.60;;;;;;5073953;28;20452;-68
2022/02/27 08:08:34;;;;;;;14.50;5.87;;;4.50;97.50;;;;;;5073653;28;20935;-68
2022/02/27 08:11:01;;;;;;;19.13;5.80;;;4.50;97.40;;;;;;5073845;28;20477;-67
2022/02/27 08:13:28;;;;;;;9.00;4.77;;;4.50;97.30;;;;;;5073428;28;20939;-68
2022/02/27 08:15:57;;;;;;;6.23;4.40;;;4.60;97.30;;;;;;5073725;28;20442;-68
2022/02/27 08:18:24;;;;;;;10.80;5.30;;;4.60;97.30;;;;;;5073702;28;20501;-68
2022/02/27 08:20:53;;;;;;;11.07;4.90;;;4.70;97.20;;;;;;5073592;28;20465;-68
2022/02/27 08:23:20;;;;;;;4.87;3.83;;;4.70;97.10;;;;;;5073775;28;20455;-68
2022/02/27 08:25:46;;;;;;;7.40;4.80;;;4.80;97.10;;;;;;5074291;28;20432;-68
2022/02/27 08:28:13;;;;;;;9.10;4.40;;;4.80;97.00;;;;;;5073653;28;20445;-68
2022/02/27 08:30:40;;;;;;;12.70;5.47;;;4.90;96.90;;;;;;5073498;28;20484;-68
2022/02/27 08:33:07;;;;;;;9.37;4.70;;;4.90;96.60;;;;;;5073968;28;20447;-68
2022/02/27 08:35:34;;;;;;;6.93;4.67;;;5.00;96.60;;;;;;5073826;28;20812;-68
2022/02/27 08:38:02;;;;;;;6.03;4.13;;;5.00;96.50;;;;;;5073774;28;20432;-68
2022/02/27 08:40:29;;;;;;;10.23;4.30;;;5.10;96.50;;;;;;5074101;28;20460;-68
2022/02/27 08:42:58;;;;;;;5.53;3.80;;;5.10;96.40;;;;;;5075257;28;20490;-67
2022/02/27 08:45:26;;;;;;;9.53;4.50;;;5.20;96.40;;;;;;5076203;28;20449;-68
2022/02/27 08:47:53;;;;;;;5.43;4.53;;;5.30;96.30;;;;;;5076050;28;20452;-68
2022/02/27 08:50:21;;;;;;;8.00;4.43;;;5.30;96.10;;;;;;5075759;28;20471;-68
2022/02/27 08:52:48;;;;;;;4.83;4.20;;;5.30;95.90;;;;;;5075600;28;20793;-68
2022/02/27 08:55:16;;;;;;;9.03;4.70;;;5.40;95.90;;;;;;5074622;28;20954;-68
2022/02/27 08:57:43;;;;;;;7.63;4.67;;;5.40;95.90;;;;;;5073888;28;20460;-68
2022/02/27 09:00:12;;;;;;;10.83;5.50;;;5.50;95.80;;;;;;5073342;28;20986;-68
2022/02/27 09:02:39;;;;;;;7.50;4.50;;;5.60;95.60;;;;;;5073135;28;20451;-68
2022/02/27 09:05:07;;;;;;;10.60;4.70;;;5.60;95.50;;;;;;5073471;28;20453;-68
2022/02/27 09:07:34;;;;;;;10.13;4.60;;;5.70;95.20;;;;;;5073021;28;20452;-68
2022/02/27 09:10:02;;;;;;;9.90;5.33;;;5.80;95.00;;;;;;5073372;28;20464;-69
2022/02/27 09:12:30;;;;;;;10.13;5.37;;;5.80;94.60;;;;;;5073195;28;20481;-69
2022/02/27 09:14:57;;;;;;;7.07;4.60;;;5.90;94.60;;;;;;5073272;28;20490;-69
2022/02/27 09:17:24;;;;;;;9.60;6.27;;;6.00;94.50;;;;;;5072894;28;20480;-68
2022/02/27 09:19:51;;;;;;;12.00;5.80;;;6.00;94.10;;;;;;5073134;28;20460;-68
2022/02/27 09:22:18;;;;;;;13.77;6.07;;;6.10;93.20;;;;;;5073087;28;20425;-69
2022/02/27 09:24:45;;;;;;;9.43;5.20;;;6.10;93.20;;;;;;5072800;28;20948;-69
2022/02/27 09:27:12;;;;;;;11.43;4.67;;;6.20;93.00;;;;;;5073008;28;20817;-69
2022/02/27 09:29:40;;;;;;;7.97;4.72;;;6.30;93.30;;;;;;5072521;28;20430;-68
2022/02/27 09:32:07;;;;;;;10.93;5.20;;;6.40;93.80;;;;;;5072921;28;20594;-69
2022/02/27 09:34:34;;;;;;;11.07;5.40;;;6.60;93.20;;;;;;5072669;28;20823;-68
2022/02/27 09:37:00;;;;;;;7.10;4.77;;;6.60;92.80;;;;;;5072523;28;20482;-68
2022/02/27 09:39:30;;;;;;;7.33;4.10;;;6.80;92.60;;;;;;5072745;28;20456;-68
2022/02/27 09:41:56;;;;;;;10.53;5.17;;;6.90;92.90;;;;;;5072654;28;20826;-68
2022/02/27 09:44:24;;;;;;;7.30;4.90;;;7.00;92.20;;;;;;5072885;28;20456;-68
2022/02/27 09:46:52;;;;;;;9.47;5.07;;;7.10;91.70;;;;;;5072859;28;20451;-68
2022/02/27 09:49:18;;;;;;;8.40;4.80;;;7.20;91.20;;;;;;5072913;28;20456;-68
2022/02/27 09:51:45;;;;;;;6.87;5.00;;;7.30;90.90;;;;;;5072709;28;20476;-68
2022/02/27 09:54:14;;;;;;;5.53;3.77;;;7.40;90.20;;;;;;5072465;28;20444;-68
2022/02/27 09:56:41;;;;;;;6.00;4.70;;;7.40;88.10;;;;;;5072435;28;20931;-68
2022/02/27 09:59:08;;;;;;;9.03;5.07;;;7.40;87.80;;;;;;5072657;28;20467;-67
2022/02/27 10:01:39;;;;;;;10.10;4.80;;;7.50;87.80;;;;;;5072664;28;20467;-68
2022/02/27 10:04:20;;;;;;;11.73;5.10;;;7.50;88.00;;;;;;5072442;28;20436;-68
2022/02/27 10:06:48;;;;;;;9.60;6.60;;;7.60;88.40;;;;;;5072354;28;20457;-68
2022/02/27 10:09:23;;;;;;;7.97;4.70;;;7.70;85.40;;;;;;5072600;28;20461;-68
2022/02/27 10:11:49;;;;;;;6.80;4.50;;;7.70;84.20;;;;;;5072283;28;20471;-68
2022/02/27 10:14:25;;;;;;;10.27;4.57;;;7.80;86.00;;;;;;5075316;28;20978;-68
2022/02/27 10:16:52;;;;;;;9.73;4.90;;;7.90;85.20;;;;;;5076259;28;20409;-68
2022/02/27 10:19:20;;;;;;;7.93;4.20;;;8.10;85.90;;;;;;5076030;28;20817;-68
2022/02/27 10:21:47;;;;;;;14.80;4.13;;;8.40;84.00;;;;;;5075770;28;20951;-68
2022/02/27 10:24:15;;;;;;;8.00;4.73;;;8.60;83.20;;;;;;5075759;28;20966;-68
2022/02/27 10:26:43;;;;;;;8.33;3.90;;;8.90;83.50;;;;;;5076161;28;20520;-68
2022/02/27 10:29:12;;;;;;;4.97;3.90;;;9.20;83.10;;;;;;5075961;28;20448;-68
2022/02/27 10:31:39;;;;;;;5.57;4.33;;;9.60;80.20;;;;;;5075824;28;20483;-68
2022/02/27 10:34:14;;;;;;;6.33;3.60;;;9.80;73.60;;;;;;5075632;28;20955;-68
2022/02/27 10:36:57;;;;;;;12.70;4.50;;;10.30;73.00;;;;;;5075813;28;20833;-68
2022/02/27 10:39:35;;;;;;;6.93;3.30;;;10.70;68.40;;;;;;5075847;28;20900;-69
2022/02/27 10:42:14;;;;;;;6.10;3.50;;;11.20;64.30;;;;;;5075701;28;20515;-69
2022/02/27 10:44:43;;;;;;;6.30;3.40;;;11.60;59.90;;;;;;5076375;28;20452;-68
2022/02/27 10:47:12;;;;;;;5.33;3.30;;;11.90;59.70;;;;;;5075346;28;20932;-68
2022/02/27 10:49:39;;;;;;;4.93;3.20;;;12.20;57.20;;;;;;5075442;28;20472;-68
2022/02/27 10:52:19;;;;;;;5.80;3.20;;;12.60;53.60;;;;;;5075393;28;20471;-68
2022/02/27 10:54:48;;;;;;;5.77;2.87;;;12.90;52.30;;;;;;5075555;28;20501;-68
2022/02/27 10:57:33;;;;;;;6.17;2.30;;;13.20;51.30;;;;;;5075351;28;20444;-68
2022/02/27 11:00:13;;;;;;;3.50;2.20;;;13.40;48.40;;;;;;5075237;28;20468;-69
2022/02/27 11:02:40;;;;;;;4.63;2.80;;;13.70;47.30;;;;;;5075263;28;20429;-69
2022/02/27 11:05:10;;;;;;;2.83;2.50;;;14.00;47.50;;;;;;5075265;28;20460;-69
2022/02/27 11:07:39;;;;;;;3.20;2.40;;;14.40;46.90;;;;;;5075671;28;20468;-69
2022/02/27 11:10:07;;;;;;;4.80;2.50;;;14.70;44.90;;;;;;5075043;28;20487;-68
2022/02/27 11:12:35;;;;;;;2.77;2.30;;;15.20;45.30;;;;;;5075767;28;20485;-68
2022/02/27 11:15:02;;;;;;;6.13;2.60;;;15.50;42.00;;;;;;5074849;28;20931;-69
2022/02/27 11:17:29;;;;;;;7.23;2.90;;;15.20;39.60;;;;;;5074932;28;20473;-69
2022/02/27 11:19:57;;;;;;;5.10;2.93;;;15.20;40.90;;;;;;5074864;28;20464;-69
2022/02/27 11:22:24;;;;;;;5.23;2.50;;;15.60;42.10;;;;;;5074901;28;20444;-69
2022/02/27 11:24:53;;;;;;;4.27;2.90;;;15.80;37.80;;;;;;5073787;28;20795;-69
2022/02/27 11:27:23;;;;;;;5.70;3.53;;;15.60;38.50;;;;;;5074554;28;20818;-69
2022/02/27 11:29:50;;;;;;;3.13;2.03;;;15.70;40.40;;;;;;5075013;28;20483;-69
2022/02/27 11:32:16;;;;;;;4.40;3.13;;;15.90;38.10;;;;;;5074396;28;20484;-69
2022/02/27 11:34:43;;;;;;;2.87;2.57;;;16.10;39.30;;;;;;5074696;28;20464;-69
2022/02/27 11:37:10;;;;;;;4.47;2.60;;;16.50;39.70;;;;;;5074658;28;20449;-69
2022/02/27 11:42:51;;;;;;;2.77;2.20;;;17.10;36.00;;;;;;5074410;28;20393;-68
2022/02/27 11:45:22;;;;;;;3.13;2.83;;;17.20;35.00;;;;;;5074086;28;20496;-69
2022/02/27 11:47:53;;;;;;;2.60;2.40;;;17.50;36.90;;;;;;5074450;28;20449;-69
2022/02/27 11:50:26;;;;;;;5.97;2.77;;;17.90;35.70;;;;;;5074075;28;20991;-69
2022/02/27 11:52:52;;;;;;;3.80;2.83;;;18.30;33.60;;;;;;5075044;28;20546;-69
2022/02/27 11:55:42;;;;;;;6.27;2.90;;;18.70;34.80;;;;;;5074221;28;20471;-69
2022/02/27 11:58:18;;;;;;;4.67;2.50;;;19.20;33.50;;;;;;5074265;28;20544;-69
2022/02/27 12:00:45;;;;;;;3.97;2.93;;;19.30;31.20;;;;;;5073821;28;20859;-69
2022/02/27 12:03:38;;;;;;;6.63;3.57;;;19.70;32.60;;;;;;5074050;28;20441;-69
2022/02/27 12:06:06;;;;;;;3.57;3.13;;;20.10;32.10;;;;;;5074004;28;20453;-69
2022/02/27 12:08:41;;;;;;;6.80;3.43;;;20.50;30.80;;;;;;5073694;28;20832;-69
2022/02/27 12:11:38;;;;;;;4.37;2.70;;;21.00;30.50;;;;;;5073935;28;20468;-69
2022/02/27 12:14:08;;;;;;;4.67;3.37;;;21.50;29.40;;;;;;5074462;28;20475;-69
2022/02/27 12:16:36;;;;;;;4.83;3.30;;;21.70;29.00;;;;;;5074164;28;20449;-69
2022/02/27 12:19:04;;;;;;;3.00;2.63;;;21.80;27.50;;;;;;5074265;28;20793;-69
2022/02/27 12:21:36;;;;;;;4.00;2.80;;;22.10;28.90;;;;;;5074922;28;20827;-69
2022/02/27 12:24:11;;;;;;;3.13;2.60;;;22.60;28.60;;;;;;5076945;28;20440;-69
2022/02/27 12:26:51;;;;;;;4.17;3.17;;;22.90;27.10;;;;;;5074033;28;20947;-70
2022/02/27 12:29:33;;;;;;;4.73;3.10;;;22.70;26.10;;;;;;5073751;28;20927;-69
2022/02/27 12:32:15;;;;;;;4.63;3.10;;;22.30;27.10;;;;;;5073733;28;20473;-69
2022/02/27 12:34:43;;;;;;;5.93;3.60;;;21.90;27.40;;;;;;5073544;28;20433;-69
2022/02/27 12:37:11;;;;;;;4.63;2.73;;;21.70;28.20;;;;;;5073306;28;20436;-69
2022/02/27 12:39:41;;;;;;;4.83;3.20;;;21.80;28.70;;;;;;5073506;28;20472;-69
2022/02/27 12:42:10;;;;;;;3.90;3.60;;;21.80;26.80;;;;;;5073442;28;20445;-69
2022/02/27 12:44:41;;;;;;;5.80;3.17;;;21.60;27.70;;;;;;5073238;28;20984;-69
2022/02/27 12:47:13;;;;;;;4.30;3.00;;;21.60;28.30;;;;;;5073515;28;20784;-69
2022/02/27 12:52:27;;;;;;;6.67;3.57;;;22.60;28.40;;;;;;5073504;28;20962;-70
2022/02/27 12:54:56;;;;;;;9.63;3.80;;;23.20;26.60;;;;;;5073213;28;20429;-69
2022/02/27 12:57:24;;;;;;;4.80;2.87;;;23.20;26.40;;;;;;5073305;28;20441;-69
2022/02/27 12:59:53;;;;;;;5.20;3.07;;;22.80;26.20;;;;;;5073315;28;20472;-69